sensor_id;sensor_type;location;lat;lon;timestamp;P1;durP1;ratioP1;P2;durP2;ratioP2
20511;SDS011;10414;52.074;5.126;2023-02-28T00:00:39;9.55;;;2.70;;
20511;SDS011;10414;52.074;5.126;2023-02-28T00:03:06;6.82;;;2.50;;
20511;SDS011;10414;52.074;5.126;2023-02-28T00:05:33;8.02;;;2.50;;
20511;SDS011;10414;52.074;5.126;2023-02-28T00:08:00;7.50;;;2.65;;
20511;SDS011;10414;52.074;5.126;2023-02-28T00:10:28;8.00;;;2.58;;
20511;SDS011;10414;52.074;5.126;2023-02-28T00:12:58;7.43;;;2.40;;
20511;SDS011;10414;52.074;5.126;2023-02-28T00:15:28;7.15;;;2.80;;
20511;SDS011;10414;52.074;5.126;2023-02-28T00:17:55;5.60;;;2.70;;
20511;SDS011;10414;52.074;5.126;2023-02-28T00:20:23;5.75;;;2.85;;
20511;SDS011;10414;52.074;5.126;2023-02-28T00:22:51;13.10;;;2.95;;
20511;SDS011;10414;52.074;5.126;2023-02-28T00:25:19;8.63;;;2.83;;
20511;SDS011;10414;52.074;5.126;2023-02-28T00:27:48;10.35;;;2.83;;
20511;SDS011;10414;52.074;5.126;2023-02-28T00:30:16;7.22;;;2.50;;
20511;SDS011;10414;52.074;5.126;2023-02-28T00:32:45;5.93;;;2.45;;
20511;SDS011;10414;52.074;5.126;2023-02-28T00:35:12;8.95;;;2.50;;
20511;SDS011;10414;52.074;5.126;2023-02-28T00:37:39;8.52;;;2.60;;
20511;SDS011;10414;52.074;5.126;2023-02-28T00:40:06;6.45;;;2.50;;
20511;SDS011;10414;52.074;5.126;2023-02-28T00:42:35;5.35;;;2.35;;
20511;SDS011;10414;52.074;5.126;2023-02-28T00:45:03;6.70;;;2.25;;
20511;SDS011;10414;52.074;5.126;2023-02-28T00:47:30;7.20;;;2.25;;
20511;SDS011;10414;52.074;5.126;2023-02-28T00:49:59;6.20;;;2.35;;
20511;SDS011;10414;52.074;5.126;2023-02-28T00:52:26;7.05;;;2.25;;
20511;SDS011;10414;52.074;5.126;2023-02-28T00:54:53;8.13;;;2.88;;
20511;SDS011;10414;52.074;5.126;2023-02-28T00:57:20;5.38;;;2.38;;
20511;SDS011;10414;52.074;5.126;2023-02-28T00:59:47;7.68;;;2.65;;
20511;SDS011;10414;52.074;5.126;2023-02-28T01:02:14;4.45;;;2.00;;
20511;SDS011;10414;52.074;5.126;2023-02-28T01:04:43;6.80;;;2.17;;
20511;SDS011;10414;52.074;5.126;2023-02-28T01:07:11;6.13;;;2.40;;
20511;SDS011;10414;52.074;5.126;2023-02-28T01:09:39;6.35;;;2.60;;
20511;SDS011;10414;52.074;5.126;2023-02-28T01:12:06;8.13;;;2.38;;
20511;SDS011;10414;52.074;5.126;2023-02-28T01:14:34;8.38;;;2.40;;
20511;SDS011;10414;52.074;5.126;2023-02-28T01:17:01;8.90;;;2.30;;
20511;SDS011;10414;52.074;5.126;2023-02-28T01:19:28;7.15;;;2.03;;
20511;SDS011;10414;52.074;5.126;2023-02-28T01:21:55;4.95;;;2.10;;
20511;SDS011;10414;52.074;5.126;2023-02-28T01:24:23;5.07;;;2.20;;
20511;SDS011;10414;52.074;5.126;2023-02-28T01:26:50;6.93;;;2.35;;
20511;SDS011;10414;52.074;5.126;2023-02-28T01:29:17;5.50;;;2.13;;
20511;SDS011;10414;52.074;5.126;2023-02-28T01:31:44;6.95;;;2.60;;
20511;SDS011;10414;52.074;5.126;2023-02-28T01:34:11;6.82;;;2.92;;
20511;SDS011;10414;52.074;5.126;2023-02-28T01:36:38;7.13;;;2.53;;
20511;SDS011;10414;52.074;5.126;2023-02-28T01:39:05;5.97;;;2.20;;
20511;SDS011;10414;52.074;5.126;2023-02-28T01:41:34;6.55;;;2.65;;
20511;SDS011;10414;52.074;5.126;2023-02-28T01:44:03;7.75;;;2.53;;
20511;SDS011;10414;52.074;5.126;2023-02-28T01:46:32;6.00;;;2.30;;
20511;SDS011;10414;52.074;5.126;2023-02-28T01:49:02;8.40;;;2.58;;
20511;SDS011;10414;52.074;5.126;2023-02-28T01:51:34;7.30;;;2.38;;
20511;SDS011;10414;52.074;5.126;2023-02-28T01:54:05;8.20;;;2.58;;
20511;SDS011;10414;52.074;5.126;2023-02-28T01:56:40;8.32;;;2.55;;
20511;SDS011;10414;52.074;5.126;2023-02-28T01:59:12;8.50;;;2.85;;
20511;SDS011;10414;52.074;5.126;2023-02-28T02:01:46;7.07;;;2.55;;
20511;SDS011;10414;52.074;5.126;2023-02-28T02:04:14;7.28;;;2.28;;
20511;SDS011;10414;52.074;5.126;2023-02-28T02:06:42;5.10;;;2.20;;
20511;SDS011;10414;52.074;5.126;2023-02-28T02:09:12;7.93;;;2.28;;
20511;SDS011;10414;52.074;5.126;2023-02-28T02:11:41;6.65;;;2.40;;
20511;SDS011;10414;52.074;5.126;2023-02-28T02:14:23;8.60;;;2.70;;
20511;SDS011;10414;52.074;5.126;2023-02-28T02:17:07;6.80;;;2.80;;
20511;SDS011;10414;52.074;5.126;2023-02-28T02:19:46;7.68;;;2.70;;
20511;SDS011;10414;52.074;5.126;2023-02-28T02:22:37;8.32;;;3.10;;
20511;SDS011;10414;52.074;5.126;2023-02-28T02:25:23;6.80;;;2.67;;
20511;SDS011;10414;52.074;5.126;2023-02-28T02:28:02;8.13;;;2.90;;
20511;SDS011;10414;52.074;5.126;2023-02-28T02:36:33;8.65;;;2.58;;
20511;SDS011;10414;52.074;5.126;2023-02-28T02:39:06;7.05;;;2.28;;
20511;SDS011;10414;52.074;5.126;2023-02-28T02:41:38;6.32;;;2.72;;
20511;SDS011;10414;52.074;5.126;2023-02-28T02:44:13;6.88;;;2.60;;
20511;SDS011;10414;52.074;5.126;2023-02-28T02:46:45;7.82;;;2.38;;
20511;SDS011;10414;52.074;5.126;2023-02-28T02:49:15;7.80;;;2.33;;
20511;SDS011;10414;52.074;5.126;2023-02-28T02:51:45;6.28;;;2.42;;
20511;SDS011;10414;52.074;5.126;2023-02-28T02:54:14;4.97;;;2.17;;
20511;SDS011;10414;52.074;5.126;2023-02-28T02:56:45;8.65;;;2.38;;
20511;SDS011;10414;52.074;5.126;2023-02-28T02:59:16;5.80;;;2.53;;
20511;SDS011;10414;52.074;5.126;2023-02-28T03:01:47;8.02;;;2.22;;
20511;SDS011;10414;52.074;5.126;2023-02-28T03:04:18;5.72;;;2.13;;
20511;SDS011;10414;52.074;5.126;2023-02-28T03:06:47;5.07;;;2.22;;
20511;SDS011;10414;52.074;5.126;2023-02-28T03:09:13;5.20;;;2.10;;
20511;SDS011;10414;52.074;5.126;2023-02-28T03:11:41;6.20;;;2.53;;
20511;SDS011;10414;52.074;5.126;2023-02-28T03:14:21;8.93;;;2.10;;
20511;SDS011;10414;52.074;5.126;2023-02-28T03:16:56;6.55;;;2.38;;
20511;SDS011;10414;52.074;5.126;2023-02-28T03:19:40;5.25;;;2.30;;
20511;SDS011;10414;52.074;5.126;2023-02-28T03:25:11;7.03;;;2.55;;
20511;SDS011;10414;52.074;5.126;2023-02-28T03:27:49;7.00;;;2.33;;
20511;SDS011;10414;52.074;5.126;2023-02-28T03:30:22;6.50;;;2.42;;
20511;SDS011;10414;52.074;5.126;2023-02-28T03:32:52;5.47;;;2.50;;
20511;SDS011;10414;52.074;5.126;2023-02-28T03:35:25;5.05;;;2.58;;
20511;SDS011;10414;52.074;5.126;2023-02-28T03:37:59;6.38;;;2.50;;
20511;SDS011;10414;52.074;5.126;2023-02-28T03:40:30;6.07;;;2.60;;
20511;SDS011;10414;52.074;5.126;2023-02-28T03:43:02;12.77;;;3.10;;
20511;SDS011;10414;52.074;5.126;2023-02-28T03:45:35;6.63;;;2.70;;
20511;SDS011;10414;52.074;5.126;2023-02-28T03:48:05;6.70;;;2.50;;
20511;SDS011;10414;52.074;5.126;2023-02-28T03:50:39;5.30;;;2.40;;
20511;SDS011;10414;52.074;5.126;2023-02-28T03:53:08;7.85;;;2.60;;
20511;SDS011;10414;52.074;5.126;2023-02-28T03:55:40;6.30;;;2.80;;
20511;SDS011;10414;52.074;5.126;2023-02-28T03:58:11;7.07;;;3.03;;
20511;SDS011;10414;52.074;5.126;2023-02-28T04:00:46;8.57;;;2.75;;
20511;SDS011;10414;52.074;5.126;2023-02-28T04:03:18;8.65;;;3.20;;
20511;SDS011;10414;52.074;5.126;2023-02-28T04:05:51;7.93;;;2.65;;
20511;SDS011;10414;52.074;5.126;2023-02-28T04:08:20;7.43;;;2.67;;
20511;SDS011;10414;52.074;5.126;2023-02-28T04:10:49;8.77;;;3.22;;
20511;SDS011;10414;52.074;5.126;2023-02-28T04:13:21;9.75;;;3.10;;
20511;SDS011;10414;52.074;5.126;2023-02-28T04:15:48;6.45;;;2.90;;
20511;SDS011;10414;52.074;5.126;2023-02-28T04:18:15;6.30;;;3.22;;
20511;SDS011;10414;52.074;5.126;2023-02-28T04:20:42;7.55;;;3.15;;
20511;SDS011;10414;52.074;5.126;2023-02-28T04:23:10;9.10;;;3.55;;
20511;SDS011;10414;52.074;5.126;2023-02-28T04:25:37;9.93;;;3.17;;
20511;SDS011;10414;52.074;5.126;2023-02-28T04:28:05;9.80;;;3.30;;
20511;SDS011;10414;52.074;5.126;2023-02-28T04:30:32;7.93;;;3.90;;
20511;SDS011;10414;52.074;5.126;2023-02-28T04:32:59;8.50;;;3.08;;
20511;SDS011;10414;52.074;5.126;2023-02-28T04:35:26;10.30;;;3.30;;
20511;SDS011;10414;52.074;5.126;2023-02-28T04:37:53;7.18;;;3.50;;
20511;SDS011;10414;52.074;5.126;2023-02-28T04:40:21;6.18;;;3.15;;
20511;SDS011;10414;52.074;5.126;2023-02-28T04:42:48;9.65;;;3.63;;
20511;SDS011;10414;52.074;5.126;2023-02-28T04:45:15;8.15;;;3.63;;
20511;SDS011;10414;52.074;5.126;2023-02-28T04:47:43;9.27;;;3.13;;
20511;SDS011;10414;52.074;5.126;2023-02-28T04:50:10;6.25;;;3.20;;
20511;SDS011;10414;52.074;5.126;2023-02-28T04:52:37;5.47;;;2.67;;
20511;SDS011;10414;52.074;5.126;2023-02-28T04:55:04;6.97;;;2.63;;
20511;SDS011;10414;52.074;5.126;2023-02-28T04:57:33;7.22;;;2.78;;
20511;SDS011;10414;52.074;5.126;2023-02-28T05:00:00;8.02;;;2.83;;
20511;SDS011;10414;52.074;5.126;2023-02-28T05:02:33;7.82;;;2.90;;
20511;SDS011;10414;52.074;5.126;2023-02-28T05:05:00;6.65;;;2.45;;
20511;SDS011;10414;52.074;5.126;2023-02-28T05:07:27;4.93;;;2.22;;
20511;SDS011;10414;52.074;5.126;2023-02-28T05:09:54;6.05;;;2.40;;
20511;SDS011;10414;52.074;5.126;2023-02-28T05:12:21;6.22;;;2.05;;
20511;SDS011;10414;52.074;5.126;2023-02-28T05:14:49;6.85;;;2.30;;
20511;SDS011;10414;52.074;5.126;2023-02-28T05:17:16;4.32;;;2.00;;
20511;SDS011;10414;52.074;5.126;2023-02-28T05:19:43;5.47;;;2.10;;
20511;SDS011;10414;52.074;5.126;2023-02-28T05:22:12;4.45;;;2.00;;
20511;SDS011;10414;52.074;5.126;2023-02-28T05:24:41;6.75;;;2.40;;
20511;SDS011;10414;52.074;5.126;2023-02-28T05:27:07;5.85;;;2.10;;
20511;SDS011;10414;52.074;5.126;2023-02-28T05:29:35;5.32;;;2.33;;
20511;SDS011;10414;52.074;5.126;2023-02-28T05:32:08;5.22;;;2.35;;
20511;SDS011;10414;52.074;5.126;2023-02-28T05:34:36;4.95;;;2.60;;
20511;SDS011;10414;52.074;5.126;2023-02-28T05:37:03;5.55;;;2.67;;
20511;SDS011;10414;52.074;5.126;2023-02-28T05:39:30;5.68;;;2.10;;
20511;SDS011;10414;52.074;5.126;2023-02-28T05:41:57;4.97;;;2.33;;
20511;SDS011;10414;52.074;5.126;2023-02-28T05:44:24;6.13;;;2.70;;
20511;SDS011;10414;52.074;5.126;2023-02-28T05:46:51;6.32;;;2.47;;
20511;SDS011;10414;52.074;5.126;2023-02-28T05:49:19;8.07;;;2.47;;
20511;SDS011;10414;52.074;5.126;2023-02-28T05:51:46;8.15;;;2.58;;
20511;SDS011;10414;52.074;5.126;2023-02-28T05:54:13;6.72;;;2.55;;
20511;SDS011;10414;52.074;5.126;2023-02-28T05:56:40;8.43;;;3.05;;
20511;SDS011;10414;52.074;5.126;2023-02-28T05:59:09;8.80;;;3.00;;
20511;SDS011;10414;52.074;5.126;2023-02-28T06:01:37;6.50;;;3.00;;
20511;SDS011;10414;52.074;5.126;2023-02-28T06:04:05;8.13;;;2.80;;
20511;SDS011;10414;52.074;5.126;2023-02-28T06:06:35;6.93;;;3.00;;
20511;SDS011;10414;52.074;5.126;2023-02-28T06:09:02;6.72;;;2.90;;
20511;SDS011;10414;52.074;5.126;2023-02-28T06:11:30;5.60;;;2.63;;
20511;SDS011;10414;52.074;5.126;2023-02-28T06:13:57;7.43;;;3.42;;
20511;SDS011;10414;52.074;5.126;2023-02-28T06:16:26;6.45;;;3.25;;
20511;SDS011;10414;52.074;5.126;2023-02-28T06:18:53;7.57;;;3.22;;
20511;SDS011;10414;52.074;5.126;2023-02-28T06:21:21;7.22;;;3.42;;
20511;SDS011;10414;52.074;5.126;2023-02-28T06:23:50;6.90;;;3.38;;
20511;SDS011;10414;52.074;5.126;2023-02-28T06:26:17;10.45;;;3.42;;
20511;SDS011;10414;52.074;5.126;2023-02-28T06:28:44;7.20;;;3.50;;
20511;SDS011;10414;52.074;5.126;2023-02-28T06:31:11;8.55;;;3.65;;
20511;SDS011;10414;52.074;5.126;2023-02-28T06:33:40;8.23;;;4.32;;
20511;SDS011;10414;52.074;5.126;2023-02-28T06:36:08;6.18;;;3.65;;
20511;SDS011;10414;52.074;5.126;2023-02-28T06:38:36;6.80;;;3.58;;
20511;SDS011;10414;52.074;5.126;2023-02-28T06:41:05;7.38;;;3.92;;
20511;SDS011;10414;52.074;5.126;2023-02-28T06:43:33;7.82;;;3.80;;
20511;SDS011;10414;52.074;5.126;2023-02-28T06:46:02;11.25;;;4.57;;
20511;SDS011;10414;52.074;5.126;2023-02-28T06:48:30;8.25;;;3.80;;
20511;SDS011;10414;52.074;5.126;2023-02-28T06:51:04;9.57;;;4.20;;
20511;SDS011;10414;52.074;5.126;2023-02-28T06:53:32;8.80;;;3.63;;
20511;SDS011;10414;52.074;5.126;2023-02-28T06:56:02;8.98;;;4.40;;
20511;SDS011;10414;52.074;5.126;2023-02-28T06:58:32;11.27;;;4.72;;
20511;SDS011;10414;52.074;5.126;2023-02-28T07:01:00;8.32;;;4.22;;
20511;SDS011;10414;52.074;5.126;2023-02-28T07:03:27;8.65;;;4.32;;
20511;SDS011;10414;52.074;5.126;2023-02-28T07:05:54;10.15;;;4.70;;
20511;SDS011;10414;52.074;5.126;2023-02-28T07:08:22;10.68;;;4.90;;
20511;SDS011;10414;52.074;5.126;2023-02-28T07:10:51;10.75;;;5.10;;
20511;SDS011;10414;52.074;5.126;2023-02-28T07:13:20;9.33;;;4.67;;
20511;SDS011;10414;52.074;5.126;2023-02-28T07:15:54;8.93;;;4.25;;
20511;SDS011;10414;52.074;5.126;2023-02-28T07:18:22;8.05;;;4.38;;
20511;SDS011;10414;52.074;5.126;2023-02-28T07:20:50;7.75;;;4.60;;
20511;SDS011;10414;52.074;5.126;2023-02-28T07:23:17;8.80;;;4.35;;
20511;SDS011;10414;52.074;5.126;2023-02-28T07:25:44;8.40;;;5.00;;
20511;SDS011;10414;52.074;5.126;2023-02-28T07:28:11;7.47;;;4.03;;
20511;SDS011;10414;52.074;5.126;2023-02-28T07:30:41;10.43;;;4.50;;
20511;SDS011;10414;52.074;5.126;2023-02-28T07:33:08;12.07;;;4.70;;
20511;SDS011;10414;52.074;5.126;2023-02-28T07:35:35;8.73;;;4.18;;
20511;SDS011;10414;52.074;5.126;2023-02-28T07:38:02;10.02;;;4.82;;
20511;SDS011;10414;52.074;5.126;2023-02-28T07:40:30;11.00;;;4.93;;
20511;SDS011;10414;52.074;5.126;2023-02-28T07:42:58;8.43;;;4.20;;
20511;SDS011;10414;52.074;5.126;2023-02-28T07:45:25;10.32;;;4.68;;
20511;SDS011;10414;52.074;5.126;2023-02-28T07:47:55;9.70;;;4.65;;
20511;SDS011;10414;52.074;5.126;2023-02-28T07:50:22;8.27;;;4.32;;
20511;SDS011;10414;52.074;5.126;2023-02-28T07:52:49;9.20;;;4.95;;
20511;SDS011;10414;52.074;5.126;2023-02-28T07:55:16;7.93;;;4.20;;
20511;SDS011;10414;52.074;5.126;2023-02-28T07:57:44;11.73;;;5.13;;
20511;SDS011;10414;52.074;5.126;2023-02-28T08:00:11;11.18;;;5.53;;
20511;SDS011;10414;52.074;5.126;2023-02-28T08:02:39;8.57;;;4.28;;
20511;SDS011;10414;52.074;5.126;2023-02-28T08:05:07;12.45;;;4.95;;
20511;SDS011;10414;52.074;5.126;2023-02-28T08:07:34;10.07;;;4.30;;
20511;SDS011;10414;52.074;5.126;2023-02-28T08:10:02;10.57;;;4.95;;
20511;SDS011;10414;52.074;5.126;2023-02-28T08:12:30;10.48;;;4.93;;
20511;SDS011;10414;52.074;5.126;2023-02-28T08:14:57;7.63;;;4.25;;
20511;SDS011;10414;52.074;5.126;2023-02-28T08:17:24;9.40;;;4.55;;
20511;SDS011;10414;52.074;5.126;2023-02-28T08:19:51;8.55;;;4.30;;
20511;SDS011;10414;52.074;5.126;2023-02-28T08:22:20;9.55;;;4.68;;
20511;SDS011;10414;52.074;5.126;2023-02-28T08:24:47;8.65;;;4.57;;
20511;SDS011;10414;52.074;5.126;2023-02-28T08:27:14;10.20;;;5.00;;
20511;SDS011;10414;52.074;5.126;2023-02-28T08:29:42;9.55;;;4.10;;
20511;SDS011;10414;52.074;5.126;2023-02-28T08:32:09;8.73;;;5.18;;
20511;SDS011;10414;52.074;5.126;2023-02-28T08:34:36;8.80;;;4.55;;
20511;SDS011;10414;52.074;5.126;2023-02-28T08:37:05;9.73;;;3.95;;
20511;SDS011;10414;52.074;5.126;2023-02-28T08:39:35;11.77;;;4.13;;
20511;SDS011;10414;52.074;5.126;2023-02-28T08:42:02;10.55;;;4.38;;
20511;SDS011;10414;52.074;5.126;2023-02-28T08:44:29;7.18;;;3.75;;
20511;SDS011;10414;52.074;5.126;2023-02-28T08:46:56;6.50;;;3.20;;
20511;SDS011;10414;52.074;5.126;2023-02-28T08:49:23;5.88;;;3.20;;
20511;SDS011;10414;52.074;5.126;2023-02-28T08:51:50;6.13;;;2.70;;
20511;SDS011;10414;52.074;5.126;2023-02-28T08:54:17;7.03;;;3.28;;
20511;SDS011;10414;52.074;5.126;2023-02-28T08:56:46;6.80;;;3.17;;
20511;SDS011;10414;52.074;5.126;2023-02-28T08:59:13;7.15;;;2.58;;
20511;SDS011;10414;52.074;5.126;2023-02-28T09:01:40;6.65;;;3.30;;
20511;SDS011;10414;52.074;5.126;2023-02-28T09:04:08;6.30;;;3.17;;
20511;SDS011;10414;52.074;5.126;2023-02-28T09:06:36;8.25;;;3.38;;
20511;SDS011;10414;52.074;5.126;2023-02-28T09:09:03;7.30;;;3.20;;
20511;SDS011;10414;52.074;5.126;2023-02-28T09:11:32;6.05;;;3.20;;
20511;SDS011;10414;52.074;5.126;2023-02-28T09:14:01;5.20;;;2.45;;
20511;SDS011;10414;52.074;5.126;2023-02-28T09:16:29;4.60;;;2.53;;
20511;SDS011;10414;52.074;5.126;2023-02-28T09:18:57;4.13;;;2.33;;
20511;SDS011;10414;52.074;5.126;2023-02-28T09:21:24;5.85;;;2.30;;
20511;SDS011;10414;52.074;5.126;2023-02-28T09:23:51;5.40;;;2.00;;
20511;SDS011;10414;52.074;5.126;2023-02-28T09:26:19;5.32;;;2.10;;
20511;SDS011;10414;52.074;5.126;2023-02-28T09:28:47;4.05;;;1.83;;
20511;SDS011;10414;52.074;5.126;2023-02-28T09:31:16;4.43;;;1.92;;
20511;SDS011;10414;52.074;5.126;2023-02-28T09:33:46;4.40;;;1.90;;
20511;SDS011;10414;52.074;5.126;2023-02-28T09:36:13;5.57;;;2.10;;
20511;SDS011;10414;52.074;5.126;2023-02-28T09:38:40;6.38;;;2.20;;
20511;SDS011;10414;52.074;5.126;2023-02-28T09:41:10;5.55;;;1.95;;
20511;SDS011;10414;52.074;5.126;2023-02-28T09:43:40;3.33;;;1.65;;
20511;SDS011;10414;52.074;5.126;2023-02-28T09:46:12;4.18;;;1.73;;
20511;SDS011;10414;52.074;5.126;2023-02-28T09:48:47;3.65;;;1.90;;
20511;SDS011;10414;52.074;5.126;2023-02-28T09:51:22;4.35;;;2.05;;
20511;SDS011;10414;52.074;5.126;2023-02-28T09:53:56;4.47;;;2.00;;
20511;SDS011;10414;52.074;5.126;2023-02-28T09:56:24;6.32;;;2.22;;
20511;SDS011;10414;52.074;5.126;2023-02-28T09:58:54;3.70;;;2.00;;
20511;SDS011;10414;52.074;5.126;2023-02-28T10:01:28;3.78;;;1.83;;
20511;SDS011;10414;52.074;5.126;2023-02-28T10:04:03;4.15;;;1.98;;
20511;SDS011;10414;52.074;5.126;2023-02-28T10:06:39;3.83;;;1.55;;
20511;SDS011;10414;52.074;5.126;2023-02-28T10:09:11;5.75;;;1.30;;
20511;SDS011;10414;52.074;5.126;2023-02-28T10:11:43;4.03;;;1.45;;
20511;SDS011;10414;52.074;5.126;2023-02-28T10:14:12;2.80;;;1.25;;
20511;SDS011;10414;52.074;5.126;2023-02-28T10:16:43;2.90;;;1.30;;
20511;SDS011;10414;52.074;5.126;2023-02-28T10:19:17;3.88;;;1.77;;
20511;SDS011;10414;52.074;5.126;2023-02-28T10:21:51;4.10;;;1.50;;
20511;SDS011;10414;52.074;5.126;2023-02-28T10:24:26;3.10;;;1.25;;
20511;SDS011;10414;52.074;5.126;2023-02-28T10:26:58;4.30;;;1.92;;
20511;SDS011;10414;52.074;5.126;2023-02-28T10:32:01;3.70;;;1.60;;
20511;SDS011;10414;52.074;5.126;2023-02-28T10:34:29;3.40;;;1.40;;
20511;SDS011;10414;52.074;5.126;2023-02-28T10:36:56;2.90;;;1.30;;
20511;SDS011;10414;52.074;5.126;2023-02-28T10:39:39;3.90;;;1.50;;
20511;SDS011;10414;52.074;5.126;2023-02-28T10:42:21;3.50;;;1.60;;
20511;SDS011;10414;52.074;5.126;2023-02-28T10:45:02;3.30;;;1.50;;
20511;SDS011;10414;52.074;5.126;2023-02-28T10:47:34;4.05;;;1.80;;
20511;SDS011;10414;52.074;5.126;2023-02-28T10:50:28;3.80;;;1.70;;
20511;SDS011;10414;52.074;5.126;2023-02-28T10:53:16;3.42;;;1.60;;
20511;SDS011;10414;52.074;5.126;2023-02-28T10:56:01;4.88;;;1.35;;
20511;SDS011;10414;52.074;5.126;2023-02-28T10:58:30;3.13;;;1.38;;
20511;SDS011;10414;52.074;5.126;2023-02-28T11:01:11;3.72;;;1.88;;
20511;SDS011;10414;52.074;5.126;2023-02-28T11:03:41;3.63;;;1.52;;
20511;SDS011;10414;52.074;5.126;2023-02-28T11:06:12;5.07;;;1.60;;
20511;SDS011;10414;52.074;5.126;2023-02-28T11:08:43;4.00;;;1.60;;
20511;SDS011;10414;52.074;5.126;2023-02-28T11:11:12;3.35;;;1.60;;
20511;SDS011;10414;52.074;5.126;2023-02-28T11:13:39;3.75;;;1.60;;
20511;SDS011;10414;52.074;5.126;2023-02-28T11:16:07;3.75;;;1.58;;
20511;SDS011;10414;52.074;5.126;2023-02-28T11:18:38;2.97;;;1.30;;
20511;SDS011;10414;52.074;5.126;2023-02-28T11:21:11;3.17;;;1.63;;
20511;SDS011;10414;52.074;5.126;2023-02-28T11:23:44;3.10;;;1.45;;
20511;SDS011;10414;52.074;5.126;2023-02-28T11:26:11;4.22;;;1.60;;
20511;SDS011;10414;52.074;5.126;2023-02-28T11:28:39;3.83;;;1.73;;
20511;SDS011;10414;52.074;5.126;2023-02-28T11:31:17;4.32;;;1.55;;
20511;SDS011;10414;52.074;5.126;2023-02-28T11:33:48;3.95;;;1.65;;
20511;SDS011;10414;52.074;5.126;2023-02-28T11:36:18;3.22;;;1.40;;
20511;SDS011;10414;52.074;5.126;2023-02-28T11:38:49;3.25;;;1.50;;
20511;SDS011;10414;52.074;5.126;2023-02-28T11:44:18;5.20;;;1.90;;
20511;SDS011;10414;52.074;5.126;2023-02-28T11:46:56;3.53;;;1.58;;
20511;SDS011;10414;52.074;5.126;2023-02-28T11:49:30;3.38;;;1.70;;
20511;SDS011;10414;52.074;5.126;2023-02-28T11:52:05;3.75;;;1.85;;
20511;SDS011;10414;52.074;5.126;2023-02-28T11:54:56;4.43;;;1.70;;
20511;SDS011;10414;52.074;5.126;2023-02-28T11:57:35;2.92;;;1.35;;
20511;SDS011;10414;52.074;5.126;2023-02-28T12:00:19;3.20;;;1.50;;
20511;SDS011;10414;52.074;5.126;2023-02-28T12:03:00;3.53;;;1.42;;
20511;SDS011;10414;52.074;5.126;2023-02-28T12:05:41;3.92;;;1.70;;
20511;SDS011;10414;52.074;5.126;2023-02-28T12:08:15;5.05;;;1.70;;
20511;SDS011;10414;52.074;5.126;2023-02-28T12:10:54;3.55;;;1.75;;
20511;SDS011;10414;52.074;5.126;2023-02-28T12:13:29;5.80;;;1.80;;
20511;SDS011;10414;52.074;5.126;2023-02-28T12:16:17;3.47;;;1.50;;
20511;SDS011;10414;52.074;5.126;2023-02-28T12:21:34;3.40;;;1.75;;
20511;SDS011;10414;52.074;5.126;2023-02-28T12:24:18;4.15;;;1.70;;
20511;SDS011;10414;52.074;5.126;2023-02-28T12:26:56;5.03;;;1.95;;
20511;SDS011;10414;52.074;5.126;2023-02-28T12:29:28;3.30;;;1.50;;
20511;SDS011;10414;52.074;5.126;2023-02-28T12:31:56;3.60;;;1.60;;
20511;SDS011;10414;52.074;5.126;2023-02-28T12:34:28;4.20;;;2.10;;
20511;SDS011;10414;52.074;5.126;2023-02-28T12:37:03;3.50;;;1.65;;
20511;SDS011;10414;52.074;5.126;2023-02-28T12:39:33;4.03;;;1.92;;
20511;SDS011;10414;52.074;5.126;2023-02-28T12:42:05;3.58;;;1.50;;
20511;SDS011;10414;52.074;5.126;2023-02-28T12:44:37;3.70;;;1.52;;
20511;SDS011;10414;52.074;5.126;2023-02-28T12:47:11;4.93;;;1.70;;
20511;SDS011;10414;52.074;5.126;2023-02-28T12:49:41;3.97;;;1.60;;
20511;SDS011;10414;52.074;5.126;2023-02-28T12:52:14;3.97;;;1.60;;
20511;SDS011;10414;52.074;5.126;2023-02-28T12:54:46;2.95;;;1.33;;
20511;SDS011;10414;52.074;5.126;2023-02-28T12:57:22;4.38;;;1.88;;
20511;SDS011;10414;52.074;5.126;2023-02-28T12:59:55;3.50;;;1.45;;
20511;SDS011;10414;52.074;5.126;2023-02-28T13:05:49;3.28;;;1.40;;
20511;SDS011;10414;52.074;5.126;2023-02-28T13:08:49;3.85;;;1.58;;
20511;SDS011;10414;52.074;5.126;2023-02-28T13:11:28;3.83;;;1.50;;
20511;SDS011;10414;52.074;5.126;2023-02-28T13:13:57;3.95;;;1.70;;
20511;SDS011;10414;52.074;5.126;2023-02-28T13:16:26;4.07;;;1.75;;
20511;SDS011;10414;52.074;5.126;2023-02-28T13:18:53;4.18;;;1.58;;
20511;SDS011;10414;52.074;5.126;2023-02-28T13:21:41;6.05;;;1.70;;
20511;SDS011;10414;52.074;5.126;2023-02-28T13:24:11;2.42;;;1.20;;
20511;SDS011;10414;52.074;5.126;2023-02-28T13:27:23;3.28;;;1.40;;
20511;SDS011;10414;52.074;5.126;2023-02-28T13:30:00;4.35;;;1.60;;
20511;SDS011;10414;52.074;5.126;2023-02-28T13:32:51;4.28;;;2.00;;
20511;SDS011;10414;52.074;5.126;2023-02-28T13:36:00;5.15;;;1.52;;
20511;SDS011;10414;52.074;5.126;2023-02-28T13:38:41;4.68;;;1.63;;
20511;SDS011;10414;52.074;5.126;2023-02-28T13:44:13;2.80;;;1.30;;
20511;SDS011;10414;52.074;5.126;2023-02-28T13:49:47;6.10;;;1.70;;
20511;SDS011;10414;52.074;5.126;2023-02-28T13:52:17;3.60;;;1.40;;
20511;SDS011;10414;52.074;5.126;2023-02-28T13:57:49;3.75;;;1.73;;
20511;SDS011;10414;52.074;5.126;2023-02-28T14:00:30;2.90;;;1.45;;
20511;SDS011;10414;52.074;5.126;2023-02-28T14:03:16;3.80;;;1.75;;
20511;SDS011;10414;52.074;5.126;2023-02-28T14:06:16;4.45;;;1.70;;
20511;SDS011;10414;52.074;5.126;2023-02-28T14:08:52;5.32;;;1.85;;
20511;SDS011;10414;52.074;5.126;2023-02-28T14:11:25;4.10;;;2.00;;
20511;SDS011;10414;52.074;5.126;2023-02-28T14:13:54;3.35;;;1.70;;
20511;SDS011;10414;52.074;5.126;2023-02-28T14:16:22;3.63;;;1.80;;
20511;SDS011;10414;52.074;5.126;2023-02-28T14:18:54;3.70;;;1.70;;
20511;SDS011;10414;52.074;5.126;2023-02-28T14:21:26;3.83;;;1.73;;
20511;SDS011;10414;52.074;5.126;2023-02-28T14:23:59;4.70;;;1.88;;
20511;SDS011;10414;52.074;5.126;2023-02-28T14:26:55;5.63;;;2.00;;
20511;SDS011;10414;52.074;5.126;2023-02-28T14:29:44;4.15;;;1.92;;
20511;SDS011;10414;52.074;5.126;2023-02-28T14:32:40;4.28;;;1.63;;
20511;SDS011;10414;52.074;5.126;2023-02-28T14:35:16;4.70;;;2.00;;
20511;SDS011;10414;52.074;5.126;2023-02-28T14:37:56;4.70;;;2.00;;
20511;SDS011;10414;52.074;5.126;2023-02-28T14:40:26;4.18;;;1.70;;
20511;SDS011;10414;52.074;5.126;2023-02-28T14:42:56;5.68;;;2.30;;
20511;SDS011;10414;52.074;5.126;2023-02-28T14:45:25;4.00;;;1.88;;
20511;SDS011;10414;52.074;5.126;2023-02-28T14:47:55;4.60;;;1.90;;
20511;SDS011;10414;52.074;5.126;2023-02-28T14:50:24;4.30;;;1.75;;
20511;SDS011;10414;52.074;5.126;2023-02-28T14:52:53;4.93;;;2.22;;
20511;SDS011;10414;52.074;5.126;2023-02-28T14:55:24;5.05;;;2.03;;
20511;SDS011;10414;52.074;5.126;2023-02-28T14:57:54;4.10;;;1.83;;
20511;SDS011;10414;52.074;5.126;2023-02-28T15:00:24;4.20;;;1.90;;
20511;SDS011;10414;52.074;5.126;2023-02-28T15:02:52;4.53;;;2.28;;
20511;SDS011;10414;52.074;5.126;2023-02-28T15:05:22;4.35;;;1.92;;
20511;SDS011;10414;52.074;5.126;2023-02-28T15:08:04;5.05;;;2.00;;
20511;SDS011;10414;52.074;5.126;2023-02-28T15:10:38;4.47;;;2.13;;
20511;SDS011;10414;52.074;5.126;2023-02-28T15:13:10;4.10;;;2.15;;
20511;SDS011;10414;52.074;5.126;2023-02-28T15:15:41;4.50;;;2.20;;
20511;SDS011;10414;52.074;5.126;2023-02-28T15:18:12;5.68;;;2.28;;
20511;SDS011;10414;52.074;5.126;2023-02-28T15:20:46;5.47;;;1.92;;
20511;SDS011;10414;52.074;5.126;2023-02-28T15:23:13;4.20;;;2.05;;
20511;SDS011;10414;52.074;5.126;2023-02-28T15:25:43;4.95;;;1.88;;
20511;SDS011;10414;52.074;5.126;2023-02-28T15:28:12;4.85;;;2.08;;
20511;SDS011;10414;52.074;5.126;2023-02-28T15:30:50;4.15;;;1.60;;
20511;SDS011;10414;52.074;5.126;2023-02-28T15:33:20;3.92;;;1.90;;
20511;SDS011;10414;52.074;5.126;2023-02-28T15:35:48;5.93;;;2.17;;
20511;SDS011;10414;52.074;5.126;2023-02-28T15:38:17;4.50;;;1.77;;
20511;SDS011;10414;52.074;5.126;2023-02-28T15:40:51;3.85;;;1.85;;